createdAt,value
2023-02-07T00:01:40.164Z,103629.88
2023-02-07T00:04:07.090Z,103637.47
2023-02-07T00:06:35.160Z,103631.22
2023-02-07T00:09:03.551Z,103637.59
2023-02-07T00:11:30.980Z,103637.59
2023-02-07T00:13:59.069Z,103639.59
2023-02-07T00:16:26.539Z,103645.09
2023-02-07T00:18:53.605Z,103643.38
2023-02-07T00:21:23.433Z,103643.03
2023-02-07T00:23:51.120Z,103629.44
2023-02-07T00:26:18.689Z,103637.78
2023-02-07T00:28:46.061Z,103637.78
2023-02-07T00:31:15.932Z,103632.91
2023-02-07T00:33:43.908Z,103636.84
2023-02-07T00:36:12.576Z,103635.34
2023-02-07T00:38:42.705Z,103631.44
2023-02-07T00:41:09.534Z,103631.34
2023-02-07T00:43:36.858Z,103625.22
2023-02-07T00:46:06.584Z,103629.16
2023-02-07T00:48:33.757Z,103617.28
2023-02-07T00:51:01.367Z,103626.81
2023-02-07T00:53:29.449Z,103631.84
2023-02-07T00:55:58.556Z,103625.88
2023-02-07T00:58:26.084Z,103617.91
2023-02-07T01:00:53.261Z,103617.66
2023-02-07T01:03:20.409Z,103615.81
2023-02-07T01:05:47.350Z,103621.69
2023-02-07T01:08:14.201Z,103617.75
2023-02-07T01:10:41.953Z,103613.16
2023-02-07T01:13:08.870Z,103611.78
2023-02-07T01:15:38.088Z,103617.16
2023-02-07T01:18:05.714Z,103613.38
2023-02-07T01:20:32.990Z,103612.75
2023-02-07T01:22:59.938Z,103613.88
2023-02-07T01:25:27.112Z,103612.69
2023-02-07T01:27:53.931Z,103612.06
2023-02-07T01:30:21.041Z,103611.69
2023-02-07T01:32:47.868Z,103623.16
2023-02-07T01:35:14.648Z,103618.19
2023-02-07T01:37:41.519Z,103612.66
2023-02-07T01:40:09.205Z,103615.47
2023-02-07T01:42:36.241Z,103604.97
2023-02-07T01:45:07.375Z,103615.13
2023-02-07T01:47:34.606Z,103612.53
2023-02-07T01:50:01.551Z,103622.56
2023-02-07T01:52:31.262Z,103617.44
2023-02-07T01:55:02.312Z,103612.34
2023-02-07T01:57:29.155Z,103609.75
2023-02-07T01:59:57.654Z,103616.69
2023-02-07T02:02:26.410Z,103617.31
2023-02-07T02:04:54.692Z,103604.25
2023-02-07T02:07:21.992Z,103614.03
2023-02-07T02:09:49.070Z,103621.59
2023-02-07T02:12:16.201Z,103612.31
2023-02-07T02:14:46.168Z,103614.53
2023-02-07T02:17:16.244Z,103607.44
2023-02-07T02:19:46.182Z,103611.19
2023-02-07T02:22:16.132Z,103610.84
2023-02-07T02:24:53.524Z,103608.53
2023-02-07T02:27:21.326Z,103607.66
2023-02-07T02:29:51.835Z,103605.34
2023-02-07T02:32:24.198Z,103609.25
2023-02-07T02:34:56.455Z,103619.63
2023-02-07T02:37:26.380Z,103604.13
2023-02-07T02:39:54.760Z,103607.63
2023-02-07T02:42:22.277Z,103606.16
2023-02-07T02:44:52.094Z,103609.81
2023-02-07T02:47:20.302Z,103608.34
2023-02-07T02:49:47.541Z,103606.88
2023-02-07T02:52:14.393Z,103599.78
2023-02-07T02:54:41.073Z,103610.63
2023-02-07T02:57:16.120Z,103603.47
2023-02-07T02:59:53.271Z,103603.47
2023-02-07T03:02:23.392Z,103601.63
2023-02-07T03:04:53.228Z,103601.84
2023-02-07T03:07:31.826Z,103590.03
2023-02-07T03:09:58.897Z,103582.06
2023-02-07T03:12:27.606Z,103575.97
2023-02-07T03:15:01.006Z,103586.59
2023-02-07T03:17:32.501Z,103583.41
2023-02-07T03:20:02.616Z,103584.72
2023-02-07T03:22:30.499Z,103576.56
2023-02-07T03:24:59.041Z,103587.78
2023-02-07T03:27:27.947Z,103598.38
2023-02-07T03:29:58.076Z,103592.78
2023-02-07T03:32:28.102Z,103600.59
2023-02-07T03:34:58.360Z,103593.50
2023-02-07T03:37:28.085Z,103596.31
2023-02-07T03:39:54.996Z,103589.84
2023-02-07T03:42:23.012Z,103592.91
2023-02-07T03:44:51.952Z,103594.47
2023-02-07T03:47:19.612Z,103595.78
2023-02-07T03:49:46.290Z,103598.59
2023-02-07T03:52:13.027Z,103594.94
2023-02-07T03:54:39.712Z,103595.19
2023-02-07T03:57:06.778Z,103577.50
2023-02-07T03:59:33.513Z,103584.19
2023-02-07T04:02:00.622Z,103580.16
2023-02-07T04:04:27.400Z,103579.91
2023-02-07T04:06:54.745Z,103573.94
2023-02-07T04:09:21.638Z,103573.47
2023-02-07T04:11:49.654Z,103562.13
2023-02-07T04:14:16.532Z,103572.22
2023-02-07T04:16:43.219Z,103572.94
2023-02-07T04:19:09.852Z,103564.50
2023-02-07T04:21:36.848Z,103563.69
2023-02-07T04:24:05.852Z,103561.59
2023-02-07T04:26:32.560Z,103585.13
2023-02-07T04:28:59.283Z,103600.88
2023-02-07T04:31:26.040Z,103598.28
2023-02-07T04:33:52.855Z,103589.00
2023-02-07T04:36:19.785Z,103593.38
2023-02-07T04:38:46.542Z,103603.38
2023-02-07T04:41:13.266Z,103597.75
2023-02-07T04:43:40.228Z,103614.81
2023-02-07T04:46:07.739Z,103607.25
2023-02-07T04:48:34.511Z,103606.88
2023-02-07T04:51:01.199Z,103620.28
2023-02-07T04:53:27.897Z,103610.78
2023-02-07T04:55:54.955Z,103618.56
2023-02-07T04:58:24.707Z,103608.44
2023-02-07T05:00:52.460Z,103608.88
2023-02-07T05:03:19.226Z,103602.41
2023-02-07T05:05:46.014Z,103601.09
2023-02-07T05:08:13.533Z,103608.00
2023-02-07T05:10:40.345Z,103604.59
2023-02-07T05:13:07.624Z,103607.91
2023-02-07T05:15:34.338Z,103597.28
2023-02-07T05:18:01.468Z,103591.91
2023-02-07T05:20:28.146Z,103591.28
2023-02-07T05:22:54.807Z,103593.41
2023-02-07T05:25:21.891Z,103593.75
2023-02-07T05:27:48.565Z,103594.63
2023-02-07T05:30:15.596Z,103595.19
2023-02-07T05:32:45.347Z,103597.66
2023-02-07T05:35:12.199Z,103597.81
2023-02-07T05:37:38.883Z,103606.34
2023-02-07T05:40:05.851Z,103607.59
2023-02-07T05:42:32.562Z,103595.66
2023-02-07T05:44:59.541Z,103593.00
2023-02-07T05:47:26.582Z,103592.03
2023-02-07T05:49:53.452Z,103584.84
2023-02-07T05:52:20.546Z,103586.72
2023-02-07T05:54:49.425Z,103586.59
2023-02-07T05:57:18.724Z,103576.59
2023-02-07T05:59:45.406Z,103578.44
2023-02-07T06:02:12.129Z,103582.22
2023-02-07T06:04:38.914Z,103587.97
2023-02-07T06:07:05.649Z,103597.38
2023-02-07T06:09:32.466Z,103593.63
2023-02-07T06:11:59.434Z,103601.09
2023-02-07T06:14:26.447Z,103596.44
2023-02-07T06:16:53.228Z,103602.16
2023-02-07T06:19:19.978Z,103609.63
2023-02-07T06:21:47.149Z,103607.81
2023-02-07T06:24:14.709Z,103605.13
2023-02-07T06:26:41.441Z,103608.88
2023-02-07T06:29:08.633Z,103613.75
2023-02-07T06:31:35.377Z,103615.84
2023-02-07T06:34:02.470Z,103615.09
2023-02-07T06:36:29.460Z,103609.34
2023-02-07T06:38:56.165Z,103610.56
2023-02-07T06:41:23.070Z,103607.88
2023-02-07T06:43:49.799Z,103612.53
2023-02-07T06:46:17.482Z,103610.09
2023-02-07T06:48:44.201Z,103607.63
2023-02-07T06:51:10.876Z,103616.41
2023-02-07T06:53:37.635Z,103611.78
2023-02-07T06:56:04.656Z,103613.22
2023-02-07T06:58:31.342Z,103615.28
2023-02-07T07:00:58.074Z,103617.63
2023-02-07T07:03:28.610Z,103616.25
2023-02-07T07:05:56.545Z,103603.66
2023-02-07T07:08:25.647Z,103610.72
2023-02-07T07:10:52.722Z,103613.31
2023-02-07T07:13:19.475Z,103614.75
2023-02-07T07:15:46.229Z,103618.19
2023-02-07T07:18:13.189Z,103619.91
2023-02-07T07:20:40.121Z,103628.06
2023-02-07T07:23:06.926Z,103622.78
2023-02-07T07:25:33.758Z,103625.59
2023-02-07T07:28:00.629Z,103620.25
2023-02-07T07:30:27.755Z,103630.88
2023-02-07T07:32:54.691Z,103633.09
2023-02-07T07:35:21.664Z,103625.03
2023-02-07T07:37:52.346Z,103636.78
2023-02-07T07:40:19.149Z,103641.84
2023-02-07T07:42:46.078Z,103639.88
2023-02-07T07:45:13.661Z,103639.25
2023-02-07T07:47:40.621Z,103645.63
2023-02-07T07:50:09.677Z,103652.38
2023-02-07T07:52:36.521Z,103646.38
2023-02-07T07:55:03.711Z,103646.38
2023-02-07T07:57:30.655Z,103658.25
2023-02-07T07:59:57.434Z,103654.06
2023-02-07T08:02:24.695Z,103663.13
2023-02-07T08:04:51.481Z,103667.66
2023-02-07T08:07:20.683Z,103663.47
2023-02-07T08:09:49.743Z,103663.47
2023-02-07T08:12:16.523Z,103668.88
2023-02-07T08:14:43.322Z,103673.13
2023-02-07T08:17:10.118Z,103667.50
2023-02-07T08:19:38.699Z,103663.59
2023-02-07T08:22:05.697Z,103659.69
2023-02-07T08:24:34.650Z,103666.41
2023-02-07T08:27:01.616Z,103667.28
2023-02-07T08:29:28.417Z,103673.28
2023-02-07T08:31:55.300Z,103674.69
2023-02-07T08:34:26.401Z,103673.38
2023-02-07T08:36:55.676Z,103664.84
2023-02-07T08:39:23.415Z,103671.44
2023-02-07T08:41:50.296Z,103668.13
2023-02-07T08:44:17.202Z,103667.91
2023-02-07T08:46:43.975Z,103673.25
2023-02-07T08:49:10.801Z,103670.94
2023-02-07T08:51:37.631Z,103674.38
2023-02-07T08:54:07.342Z,103676.56
2023-02-07T08:56:34.176Z,103678.78
2023-02-07T08:59:06.376Z,103673.16
2023-02-07T09:01:36.468Z,103666.91
2023-02-07T09:04:03.363Z,103669.38
2023-02-07T09:06:30.206Z,103669.59
2023-02-07T09:08:59.285Z,103676.31
2023-02-07T09:11:28.682Z,103668.75
2023-02-07T09:13:55.573Z,103668.16
2023-02-07T09:16:23.636Z,103666.44
2023-02-07T09:18:53.924Z,103662.75
2023-02-07T09:21:20.796Z,103662.16
2023-02-07T09:23:47.624Z,103666.94
2023-02-07T09:26:17.478Z,103666.06
2023-02-07T09:28:44.403Z,103667.41
2023-02-07T09:31:12.691Z,103676.94
2023-02-07T09:33:39.985Z,103675.22
2023-02-07T09:36:07.209Z,103677.69
2023-02-07T09:38:33.960Z,103689.75
2023-02-07T09:41:00.755Z,103680.94
2023-02-07T09:43:29.457Z,103687.44
2023-02-07T09:46:03.138Z,103696.09
2023-02-07T09:48:37.741Z,103690.38
2023-02-07T09:51:05.526Z,103689.72
2023-02-07T09:53:35.426Z,103689.97
2023-02-07T09:56:03.037Z,103692.19
2023-02-07T09:58:32.900Z,103690.69
2023-02-07T10:01:02.818Z,103680.81
2023-02-07T10:03:30.558Z,103692.91
2023-02-07T10:06:06.221Z,103690.81
2023-02-07T10:08:44.472Z,103693.47
2023-02-07T10:11:14.416Z,103694.34
2023-02-07T10:13:45.623Z,103700.41
2023-02-07T10:16:15.552Z,103703.09
2023-02-07T10:18:43.701Z,103694.66
2023-02-07T10:21:11.955Z,103700.75
2023-02-07T10:23:40.404Z,103706.63
2023-02-07T10:26:10.456Z,103699.50
2023-02-07T10:28:38.813Z,103698.28
2023-02-07T10:31:12.360Z,103703.41
2023-02-07T10:33:41.595Z,103704.75
2023-02-07T10:36:16.219Z,103690.94
2023-02-07T10:38:56.732Z,103702.66
2023-02-07T10:41:29.916Z,103685.19
2023-02-07T10:43:56.900Z,103683.94
2023-02-07T10:46:23.954Z,103693.47
2023-02-07T10:48:50.735Z,103696.53
2023-02-07T10:51:20.636Z,103700.78
2023-02-07T10:53:54.953Z,103707.41
2023-02-07T10:56:26.027Z,103704.47
2023-02-07T10:58:54.472Z,103699.47
2023-02-07T11:01:22.516Z,103694.09
2023-02-07T11:03:49.431Z,103699.94
2023-02-07T11:06:24.197Z,103702.13
2023-02-07T11:08:51.174Z,103702.13
2023-02-07T11:11:19.727Z,103697.13
2023-02-07T11:13:49.418Z,103689.69
2023-02-07T11:16:23.415Z,103691.38
2023-02-07T11:18:53.432Z,103692.72
2023-02-07T11:21:22.797Z,103694.19
2023-02-07T11:23:50.615Z,103687.09
2023-02-07T11:26:19.561Z,103693.81
2023-02-07T11:28:47.037Z,103692.72
2023-02-07T11:31:18.576Z,103689.28
2023-02-07T11:33:45.446Z,103685.88
2023-02-07T11:36:20.880Z,103688.03
2023-02-07T11:38:49.647Z,103677.94
2023-02-07T11:41:18.447Z,103678.53
2023-02-07T11:43:48.727Z,103672.06
2023-02-07T11:46:15.616Z,103671.22
2023-02-07T11:48:42.518Z,103670.34
2023-02-07T11:51:15.577Z,103664.63
2023-02-07T11:53:46.008Z,103663.28
2023-02-07T11:56:25.018Z,103676.66
2023-02-07T11:58:52.502Z,103663.50
2023-02-07T12:01:23.588Z,103665.72
2023-02-07T12:03:55.633Z,103660.09
2023-02-07T12:06:24.834Z,103654.13
2023-02-07T12:08:52.700Z,103644.56
2023-02-07T12:11:22.605Z,103640.91
2023-02-07T12:13:53.236Z,103635.56
2023-02-07T12:16:23.791Z,103639.69
2023-02-07T12:18:54.123Z,103629.31
2023-02-07T12:21:24.239Z,103629.56
2023-02-07T12:23:54.667Z,103628.22
2023-02-07T12:26:25.344Z,103626.13
2023-02-07T12:29:12.186Z,103623.09
2023-02-07T12:31:42.985Z,103617.72
2023-02-07T12:34:12.991Z,103608.44
2023-02-07T12:36:43.709Z,103620.16
2023-02-07T12:39:13.878Z,103619.06
2023-02-07T12:41:47.428Z,103610.88
2023-02-07T12:44:17.209Z,103611.75
2023-02-07T12:46:47.645Z,103605.75
2023-02-07T12:49:19.643Z,103604.63
2023-02-07T12:51:49.544Z,103607.94
2023-02-07T12:54:22.946Z,103610.09
2023-02-07T12:56:53.062Z,103602.31
2023-02-07T12:59:20.540Z,103601.47
2023-02-07T13:01:47.793Z,103602.31
2023-02-07T13:04:14.977Z,103593.28
2023-02-07T13:06:45.830Z,103594.13
2023-02-07T13:09:16.748Z,103594.75
2023-02-07T13:11:52.517Z,103587.94
2023-02-07T13:14:22.481Z,103596.09
2023-02-07T13:16:52.073Z,103580.97
2023-02-07T13:19:24.806Z,103581.22
2023-02-07T13:21:55.026Z,103581.47
2023-02-07T13:24:31.444Z,103569.38
2023-02-07T13:27:01.081Z,103578.44
2023-02-07T13:29:30.359Z,103580.38
2023-02-07T13:32:00.809Z,103571.97
2023-02-07T13:34:30.873Z,103565.50
2023-02-07T13:37:02.863Z,103565.50
2023-02-07T13:39:36.788Z,103561.81
2023-02-07T13:42:06.860Z,103564.84
2023-02-07T13:44:41.185Z,103566.81
2023-02-07T13:47:11.708Z,103563.41
2023-02-07T13:49:42.015Z,103548.75
2023-02-07T13:52:11.662Z,103562.31
2023-02-07T13:54:41.945Z,103560.59
2023-02-07T13:57:22.368Z,103559.09
2023-02-07T13:59:52.303Z,103558.03
2023-02-07T14:02:20.836Z,103549.59
2023-02-07T14:04:50.785Z,103552.63
2023-02-07T14:07:23.515Z,103550.94
2023-02-07T14:09:50.765Z,103551.41
2023-02-07T14:12:17.869Z,103551.41
2023-02-07T14:15:00.358Z,103549.72
2023-02-07T14:17:31.780Z,103551.91
2023-02-07T14:19:59.376Z,103557.09
2023-02-07T14:22:28.104Z,103547.38
2023-02-07T14:24:58.735Z,103542.84
2023-02-07T14:27:29.145Z,103538.97
2023-02-07T14:30:10.108Z,103542.84
2023-02-07T14:32:43.860Z,103545.66
2023-02-07T14:35:12.540Z,103545.66
2023-02-07T14:37:41.726Z,103544.81
2023-02-07T14:40:12.060Z,103555.19
2023-02-07T14:42:39.549Z,103543.31
2023-02-07T14:45:07.386Z,103547.81
2023-02-07T14:47:37.756Z,103550.00
2023-02-07T14:50:07.722Z,103553.91
2023-02-07T14:52:36.165Z,103553.06
2023-02-07T14:55:06.175Z,103557.44
2023-02-07T14:57:33.742Z,103547.69
2023-02-07T15:00:01.173Z,103552.28
2023-02-07T15:02:34.756Z,103550.81
2023-02-07T15:05:04.667Z,103557.28
2023-02-07T15:07:31.823Z,103556.44
2023-02-07T15:09:58.644Z,103554.47
2023-02-07T15:12:28.123Z,103556.66
2023-02-07T15:14:57.241Z,103558.00
2023-02-07T15:17:33.356Z,103552.59
2023-02-07T15:20:03.080Z,103547.88
2023-02-07T15:22:32.126Z,103551.97
2023-02-07T15:24:59.806Z,103560.38
2023-02-07T15:27:32.440Z,103557.22
2023-02-07T15:30:00.441Z,103570.34
2023-02-07T15:32:30.344Z,103561.09
2023-02-07T15:34:57.771Z,103569.75
2023-02-07T15:37:26.296Z,103561.56
2023-02-07T15:39:54.743Z,103556.81
2023-02-07T15:42:22.116Z,103560.13
2023-02-07T15:44:51.944Z,103561.19
2023-02-07T15:47:28.289Z,103559.47
2023-02-07T15:50:02.999Z,103555.44
2023-02-07T15:52:34.405Z,103559.31
2023-02-07T15:55:03.786Z,103560.41
2023-02-07T15:57:34.003Z,103561.97
2023-02-07T16:00:02.392Z,103554.44
2023-02-07T16:02:33.425Z,103552.97
2023-02-07T16:05:08.240Z,103546.50
2023-02-07T16:07:36.271Z,103541.59
2023-02-07T16:10:06.180Z,103544.41
2023-02-07T16:12:34.541Z,103549.38
2023-02-07T16:15:02.184Z,103546.56
2023-02-07T16:17:38.092Z,103546.19
2023-02-07T16:20:05.208Z,103544.03
2023-02-07T16:22:35.243Z,103539.72
2023-02-07T16:25:02.906Z,103540.91
2023-02-07T16:27:34.122Z,103535.69
2023-02-07T16:30:03.014Z,103541.50
2023-02-07T16:32:32.834Z,103538.63
2023-02-07T16:35:00.494Z,103540.09
2023-02-07T16:37:29.866Z,103544.41
2023-02-07T16:39:56.708Z,103542.63
2023-02-07T16:42:23.666Z,103544.28
2023-02-07T16:44:50.933Z,103545.78
2023-02-07T16:47:18.476Z,103550.31
2023-02-07T16:49:46.274Z,103551.56
2023-02-07T16:52:13.674Z,103548.03
2023-02-07T16:54:41.172Z,103546.47
2023-02-07T16:57:12.215Z,103544.06
2023-02-07T16:59:39.536Z,103548.09
2023-02-07T17:02:11.854Z,103542.63
2023-02-07T17:04:39.203Z,103544.50
2023-02-07T17:07:06.491Z,103550.84
2023-02-07T17:09:34.085Z,103545.44
2023-02-07T17:12:01.323Z,103542.75
2023-02-07T17:14:28.792Z,103544.84
2023-02-07T17:16:58.537Z,103541.72
2023-02-07T17:19:26.862Z,103541.00
2023-02-07T17:21:54.385Z,103547.81
2023-02-07T17:24:21.782Z,103548.81
2023-02-07T17:26:51.565Z,103539.47
2023-02-07T17:29:19.197Z,103540.44
2023-02-07T17:31:46.801Z,103543.34
2023-02-07T17:34:14.296Z,103553.63
2023-02-07T17:36:44.012Z,103548.16
2023-02-07T17:39:12.870Z,103550.84
2023-02-07T17:41:40.366Z,103554.63
2023-02-07T17:44:08.234Z,103556.47
2023-02-07T17:46:35.764Z,103562.84
2023-02-07T17:49:03.334Z,103570.53
2023-02-07T17:51:30.683Z,103585.56
2023-02-07T17:53:58.152Z,103578.34
2023-02-07T17:56:27.107Z,103582.38
2023-02-07T17:58:55.788Z,103578.59
2023-02-07T18:01:23.404Z,103584.13
2023-02-07T18:03:52.795Z,103579.94
2023-02-07T18:06:21.938Z,103576.63
2023-02-07T18:08:50.333Z,103578.72
2023-02-07T18:11:18.010Z,103584.44
2023-02-07T18:13:47.179Z,103592.13
2023-02-07T18:16:16.455Z,103587.16
2023-02-07T18:18:44.105Z,103582.13
2023-02-07T18:21:13.670Z,103577.97
2023-02-07T18:23:43.308Z,103590.66
2023-02-07T18:26:12.065Z,103591.00
2023-02-07T18:28:39.509Z,103582.34
2023-02-07T18:31:10.314Z,103582.13
2023-02-07T18:33:37.945Z,103582.97
2023-02-07T18:36:05.615Z,103583.56
2023-02-07T18:38:32.937Z,103579.41
2023-02-07T18:41:00.303Z,103577.19
2023-02-07T18:43:27.488Z,103577.81
2023-02-07T18:45:54.807Z,103580.34
2023-02-07T18:48:21.963Z,103577.69
2023-02-07T18:50:49.412Z,103582.84
2023-02-07T18:53:16.702Z,103576.72
2023-02-07T18:55:44.213Z,103586.34
2023-02-07T18:58:11.667Z,103574.59
2023-02-07T19:00:39.112Z,103576.94
2023-02-07T19:03:06.463Z,103578.63
2023-02-07T19:05:33.540Z,103581.19
2023-02-07T19:08:00.749Z,103580.31
2023-02-07T19:10:27.864Z,103585.72
2023-02-07T19:12:55.169Z,103579.84
2023-02-07T19:15:22.776Z,103577.03
2023-02-07T19:17:49.883Z,103569.44
2023-02-07T19:20:16.927Z,103579.22
2023-02-07T19:22:45.096Z,103579.22
2023-02-07T19:25:13.584Z,103585.38
2023-02-07T19:27:40.864Z,103578.88
2023-02-07T19:30:08.682Z,103575.81
2023-02-07T19:32:35.886Z,103579.47
2023-02-07T19:35:03.071Z,103579.75
2023-02-07T19:37:30.010Z,103581.94
2023-02-07T19:39:57.028Z,103584.75
2023-02-07T19:42:25.063Z,103592.81
2023-02-07T19:44:52.172Z,103589.66
2023-02-07T19:47:19.110Z,103580.97
2023-02-07T19:49:51.950Z,103591.63
2023-02-07T19:52:19.577Z,103581.72
2023-02-07T19:54:46.848Z,103588.94
2023-02-07T19:57:13.824Z,103582.69
2023-02-07T19:59:40.771Z,103595.66
2023-02-07T20:02:07.900Z,103578.66
2023-02-07T20:04:34.991Z,103586.25
2023-02-07T20:07:03.170Z,103592.72
2023-02-07T20:09:30.411Z,103584.19
2023-02-07T20:11:57.382Z,103584.19
2023-02-07T20:14:24.430Z,103586.63
2023-02-07T20:16:51.335Z,103587.97
2023-02-07T20:19:18.227Z,103590.19
2023-02-07T20:21:45.388Z,103584.81
2023-02-07T20:24:12.412Z,103584.81
2023-02-07T20:26:41.180Z,103575.41
2023-02-07T20:29:09.873Z,103575.41
2023-02-07T20:31:37.386Z,103567.94
2023-02-07T20:34:04.626Z,103569.31
2023-02-07T20:36:32.196Z,103567.59
2023-02-07T20:38:59.862Z,103565.88
2023-02-07T20:41:30.970Z,103565.53
2023-02-07T20:43:59.158Z,103566.66
2023-02-07T20:46:27.102Z,103558.44
2023-02-07T20:48:56.163Z,103560.91
2023-02-07T20:51:23.354Z,103560.91
2023-02-07T20:53:50.420Z,103567.00
2023-02-07T20:56:18.020Z,103566.03
2023-02-07T20:58:47.637Z,103561.16
2023-02-07T21:01:16.824Z,103560.31
2023-02-07T21:03:46.626Z,103555.41
2023-02-07T21:06:13.983Z,103557.09
2023-02-07T21:08:41.514Z,103555.16
2023-02-07T21:11:09.092Z,103559.91
2023-02-07T21:13:36.840Z,103557.72
2023-02-07T21:16:04.729Z,103562.00
2023-02-07T21:18:32.512Z,103562.38
2023-02-07T21:21:00.408Z,103560.78
2023-02-07T21:23:27.550Z,103564.81
2023-02-07T21:25:54.680Z,103577.75
2023-02-07T21:28:21.851Z,103581.78
2023-02-07T21:30:48.980Z,103575.78
2023-02-07T21:33:16.074Z,103577.72
2023-02-07T21:35:43.109Z,103581.16
2023-02-07T21:38:10.087Z,103575.41
2023-02-07T21:40:37.255Z,103580.28
2023-02-07T21:43:05.208Z,103569.16
2023-02-07T21:45:32.310Z,103569.50
2023-02-07T21:47:59.403Z,103563.41
2023-02-07T21:50:26.506Z,103562.91
2023-02-07T21:52:53.462Z,103565.81
2023-02-07T21:55:21.511Z,103567.91
2023-02-07T21:57:48.428Z,103551.41
2023-02-07T22:00:15.449Z,103568.63
2023-02-07T22:02:42.287Z,103556.03
2023-02-07T22:05:09.353Z,103566.25
2023-02-07T22:07:36.240Z,103561.00
2023-02-07T22:10:03.183Z,103561.38
2023-02-07T22:12:30.119Z,103558.03
2023-02-07T22:14:56.979Z,103568.28
2023-02-07T22:17:23.854Z,103567.78
2023-02-07T22:19:52.004Z,103572.06
2023-02-07T22:22:19.207Z,103562.03
2023-02-07T22:24:46.244Z,103562.34
2023-02-07T22:27:13.196Z,103568.31
2023-02-07T22:29:40.169Z,103568.66
2023-02-07T22:32:07.153Z,103560.59
2023-02-07T22:34:34.725Z,103567.44
2023-02-07T22:37:01.697Z,103577.31
2023-02-07T22:39:29.135Z,103572.88
2023-02-07T22:41:56.789Z,103570.69
2023-02-07T22:44:25.189Z,103578.59
2023-02-07T22:46:52.443Z,103578.09
2023-02-07T22:49:19.683Z,103572.22
2023-02-07T22:51:46.915Z,103573.06
2023-02-07T22:54:16.410Z,103566.38
2023-02-07T22:56:44.987Z,103566.09
2023-02-07T22:59:12.567Z,103571.47
2023-02-07T23:01:40.590Z,103562.78
2023-02-07T23:04:08.846Z,103560.56
2023-02-07T23:06:36.077Z,103564.22
2023-02-07T23:09:03.106Z,103559.78
2023-02-07T23:11:29.943Z,103574.50
2023-02-07T23:13:56.948Z,103566.63
2023-02-07T23:16:25.290Z,103560.50
2023-02-07T23:18:53.203Z,103563.91
2023-02-07T23:21:21.632Z,103558.88
2023-02-07T23:23:49.152Z,103562.03
2023-02-07T23:26:17.468Z,103566.81
2023-02-07T23:28:45.408Z,103561.25
2023-02-07T23:31:14.982Z,103553.66
2023-02-07T23:33:42.127Z,103552.56
2023-02-07T23:36:09.129Z,103550.59
2023-02-07T23:38:36.639Z,103550.06
2023-02-07T23:41:03.910Z,103546.06
2023-02-07T23:43:30.854Z,103550.84
2023-02-07T23:45:57.966Z,103540.69
2023-02-07T23:48:25.473Z,103538.16
2023-02-07T23:50:53.007Z,103540.09
2023-02-07T23:53:20.241Z,103533.63
2023-02-07T23:55:48.588Z,103538.41
2023-02-07T23:58:15.705Z,103537.78
